sensor_id;sensor_type;location;lat;lon;timestamp;temperature;humidity
67273;DHT22;54190;49.770;9.250;2022-09-13T00:00:43;14.90;99.90
67273;DHT22;54190;49.770;9.250;2022-09-13T00:03:10;14.90;99.90
67273;DHT22;54190;49.770;9.250;2022-09-13T00:05:37;14.90;99.90
67273;DHT22;54190;49.770;9.250;2022-09-13T00:08:04;15.00;99.90
67273;DHT22;54190;49.770;9.250;2022-09-13T00:10:29;15.00;99.90
67273;DHT22;54190;49.770;9.250;2022-09-13T00:12:55;15.00;99.90
67273;DHT22;54190;49.770;9.250;2022-09-13T00:15:22;15.00;99.90
67273;DHT22;54190;49.770;9.250;2022-09-13T00:17:47;14.90;99.90
67273;DHT22;54190;49.770;9.250;2022-09-13T00:20:13;14.90;99.90
67273;DHT22;54190;49.770;9.250;2022-09-13T00:22:39;15.00;99.90
67273;DHT22;54190;49.770;9.250;2022-09-13T00:25:06;15.00;99.90
67273;DHT22;54190;49.770;9.250;2022-09-13T00:27:33;15.00;99.90
67273;DHT22;54190;49.770;9.250;2022-09-13T00:29:59;14.90;99.90
67273;DHT22;54190;49.770;9.250;2022-09-13T00:32:25;14.90;99.90
67273;DHT22;54190;49.770;9.250;2022-09-13T00:34:51;14.80;99.90
67273;DHT22;54190;49.770;9.250;2022-09-13T00:37:16;14.80;99.90
67273;DHT22;54190;49.770;9.250;2022-09-13T00:39:42;14.70;99.90
67273;DHT22;54190;49.770;9.250;2022-09-13T00:42:12;14.60;99.90
67273;DHT22;54190;49.770;9.250;2022-09-13T00:44:58;14.40;99.90
67273;DHT22;54190;49.770;9.250;2022-09-13T00:47:29;14.20;99.90
67273;DHT22;54190;49.770;9.250;2022-09-13T00:51:02;14.10;99.90
67273;DHT22;54190;49.770;9.250;2022-09-13T00:53:01;14.00;99.90
67273;DHT22;54190;49.770;9.250;2022-09-13T00:55:41;14.10;99.90
67273;DHT22;54190;49.770;9.250;2022-09-13T00:58:30;14.10;99.90
67273;DHT22;54190;49.770;9.250;2022-09-13T01:00:57;14.10;99.90
67273;DHT22;54190;49.770;9.250;2022-09-13T01:03:27;14.10;99.90
67273;DHT22;54190;49.770;9.250;2022-09-13T01:05:58;14.30;99.90
67273;DHT22;54190;49.770;9.250;2022-09-13T01:08:26;14.20;99.90
67273;DHT22;54190;49.770;9.250;2022-09-13T01:10:58;14.20;99.90
67273;DHT22;54190;49.770;9.250;2022-09-13T01:13:30;14.30;99.90
67273;DHT22;54190;49.770;9.250;2022-09-13T01:15:57;14.30;99.90
67273;DHT22;54190;49.770;9.250;2022-09-13T01:18:23;14.30;99.90
67273;DHT22;54190;49.770;9.250;2022-09-13T01:21:16;14.30;99.90
67273;DHT22;54190;49.770;9.250;2022-09-13T01:32:24;14.30;99.90
67273;DHT22;54190;49.770;9.250;2022-09-13T01:46:02;14.10;99.90
67273;DHT22;54190;49.770;9.250;2022-09-13T01:51:08;14.00;99.90
67273;DHT22;54190;49.770;9.250;2022-09-13T01:53:53;14.00;99.90
67273;DHT22;54190;49.770;9.250;2022-09-13T02:00:18;14.00;99.90
67273;DHT22;54190;49.770;9.250;2022-09-13T02:05:30;13.90;99.90
67273;DHT22;54190;49.770;9.250;2022-09-13T02:08:04;13.90;99.90
67273;DHT22;54190;49.770;9.250;2022-09-13T02:10:41;13.80;99.90
67273;DHT22;54190;49.770;9.250;2022-09-13T02:13:19;13.80;99.90
67273;DHT22;54190;49.770;9.250;2022-09-13T02:15:49;13.80;99.90
67273;DHT22;54190;49.770;9.250;2022-09-13T02:18:33;13.90;99.90
67273;DHT22;54190;49.770;9.250;2022-09-13T02:21:10;13.80;99.90
67273;DHT22;54190;49.770;9.250;2022-09-13T02:23:44;13.80;99.90
67273;DHT22;54190;49.770;9.250;2022-09-13T02:26:13;13.70;99.90
67273;DHT22;54190;49.770;9.250;2022-09-13T02:28:47;13.60;99.90
67273;DHT22;54190;49.770;9.250;2022-09-13T02:31:17;13.40;99.90
67273;DHT22;54190;49.770;9.250;2022-09-13T02:33:49;13.40;99.90
67273;DHT22;54190;49.770;9.250;2022-09-13T02:36:24;13.40;99.90
67273;DHT22;54190;49.770;9.250;2022-09-13T02:39:03;13.40;99.90
67273;DHT22;54190;49.770;9.250;2022-09-13T02:41:38;13.60;99.90
67273;DHT22;54190;49.770;9.250;2022-09-13T02:44:09;13.50;99.90
67273;DHT22;54190;49.770;9.250;2022-09-13T02:49:41;13.60;99.90
67273;DHT22;54190;49.770;9.250;2022-09-13T02:52:35;13.60;99.90
67273;DHT22;54190;49.770;9.250;2022-09-13T02:55:18;13.60;99.90
67273;DHT22;54190;49.770;9.250;2022-09-13T02:57:54;13.60;99.90
67273;DHT22;54190;49.770;9.250;2022-09-13T03:00:24;13.60;99.90
67273;DHT22;54190;49.770;9.250;2022-09-13T03:02:50;13.70;99.90
67273;DHT22;54190;49.770;9.250;2022-09-13T03:05:17;13.60;99.90
67273;DHT22;54190;49.770;9.250;2022-09-13T03:07:43;13.40;99.90
67273;DHT22;54190;49.770;9.250;2022-09-13T03:10:10;13.40;99.90
67273;DHT22;54190;49.770;9.250;2022-09-13T03:16:04;13.40;99.90
67273;DHT22;54190;49.770;9.250;2022-09-13T03:21:20;13.50;99.90
67273;DHT22;54190;49.770;9.250;2022-09-13T03:30:04;13.50;99.90
67273;DHT22;54190;49.770;9.250;2022-09-13T03:45:53;13.70;99.90
67273;DHT22;54190;49.770;9.250;2022-09-13T03:48:22;13.60;99.90
67273;DHT22;54190;49.770;9.250;2022-09-13T03:50:48;13.60;99.90
67273;DHT22;54190;49.770;9.250;2022-09-13T03:53:21;13.60;99.90
67273;DHT22;54190;49.770;9.250;2022-09-13T03:55:48;13.60;99.90
67273;DHT22;54190;49.770;9.250;2022-09-13T03:58:16;13.50;99.90
67273;DHT22;54190;49.770;9.250;2022-09-13T04:00:43;13.40;99.90
67273;DHT22;54190;49.770;9.250;2022-09-13T04:03:10;13.30;99.90
67273;DHT22;54190;49.770;9.250;2022-09-13T04:05:36;13.20;99.90
67273;DHT22;54190;49.770;9.250;2022-09-13T04:08:02;13.20;99.90
67273;DHT22;54190;49.770;9.250;2022-09-13T04:10:31;13.20;99.90
67273;DHT22;54190;49.770;9.250;2022-09-13T04:12:57;13.20;99.90
67273;DHT22;54190;49.770;9.250;2022-09-13T04:15:25;13.20;99.90
67273;DHT22;54190;49.770;9.250;2022-09-13T04:17:51;13.10;99.90
67273;DHT22;54190;49.770;9.250;2022-09-13T04:20:17;13.00;99.90
67273;DHT22;54190;49.770;9.250;2022-09-13T04:22:43;13.00;99.90
67273;DHT22;54190;49.770;9.250;2022-09-13T04:25:15;13.00;99.90
67273;DHT22;54190;49.770;9.250;2022-09-13T04:27:40;13.10;99.90
67273;DHT22;54190;49.770;9.250;2022-09-13T04:30:06;13.10;99.90
67273;DHT22;54190;49.770;9.250;2022-09-13T04:32:32;13.20;99.90
67273;DHT22;54190;49.770;9.250;2022-09-13T04:34:58;13.20;99.90
67273;DHT22;54190;49.770;9.250;2022-09-13T04:37:23;13.30;99.90
67273;DHT22;54190;49.770;9.250;2022-09-13T04:39:49;13.30;99.90
67273;DHT22;54190;49.770;9.250;2022-09-13T04:42:15;13.20;99.90
67273;DHT22;54190;49.770;9.250;2022-09-13T04:44:40;13.20;99.90
67273;DHT22;54190;49.770;9.250;2022-09-13T04:47:07;13.20;99.90
67273;DHT22;54190;49.770;9.250;2022-09-13T04:49:33;13.20;99.90
67273;DHT22;54190;49.770;9.250;2022-09-13T04:51:59;13.20;99.90
67273;DHT22;54190;49.770;9.250;2022-09-13T04:54:25;13.20;99.90
67273;DHT22;54190;49.770;9.250;2022-09-13T04:56:51;13.20;99.90
67273;DHT22;54190;49.770;9.250;2022-09-13T04:59:17;13.20;99.90
67273;DHT22;54190;49.770;9.250;2022-09-13T05:01:43;13.20;99.90
67273;DHT22;54190;49.770;9.250;2022-09-13T05:04:09;13.20;99.90
67273;DHT22;54190;49.770;9.250;2022-09-13T05:06:35;13.20;99.90
67273;DHT22;54190;49.770;9.250;2022-09-13T05:09:01;13.10;99.90
67273;DHT22;54190;49.770;9.250;2022-09-13T05:11:28;13.10;99.90
67273;DHT22;54190;49.770;9.250;2022-09-13T05:13:57;13.20;99.90
67273;DHT22;54190;49.770;9.250;2022-09-13T05:16:28;13.10;99.90
67273;DHT22;54190;49.770;9.250;2022-09-13T05:18:55;13.20;99.90
67273;DHT22;54190;49.770;9.250;2022-09-13T05:21:20;13.20;99.90
67273;DHT22;54190;49.770;9.250;2022-09-13T05:23:50;13.10;99.90
67273;DHT22;54190;49.770;9.250;2022-09-13T05:26:17;13.20;99.90
67273;DHT22;54190;49.770;9.250;2022-09-13T05:28:43;13.10;99.90
67273;DHT22;54190;49.770;9.250;2022-09-13T05:31:17;13.10;99.90
67273;DHT22;54190;49.770;9.250;2022-09-13T05:33:44;13.10;99.90
67273;DHT22;54190;49.770;9.250;2022-09-13T05:36:11;13.10;99.90
67273;DHT22;54190;49.770;9.250;2022-09-13T05:38:36;13.10;99.90
67273;DHT22;54190;49.770;9.250;2022-09-13T05:41:04;13.10;99.90
67273;DHT22;54190;49.770;9.250;2022-09-13T05:43:33;13.10;99.90
67273;DHT22;54190;49.770;9.250;2022-09-13T05:46:00;13.10;99.90
67273;DHT22;54190;49.770;9.250;2022-09-13T05:48:26;13.10;99.90
67273;DHT22;54190;49.770;9.250;2022-09-13T05:50:51;13.10;99.90
67273;DHT22;54190;49.770;9.250;2022-09-13T05:53:17;13.10;99.90
67273;DHT22;54190;49.770;9.250;2022-09-13T05:55:43;13.10;99.90
67273;DHT22;54190;49.770;9.250;2022-09-13T05:58:09;13.10;99.90
67273;DHT22;54190;49.770;9.250;2022-09-13T06:00:34;13.10;99.90
67273;DHT22;54190;49.770;9.250;2022-09-13T06:03:00;13.10;99.90
67273;DHT22;54190;49.770;9.250;2022-09-13T06:05:25;13.10;99.90
67273;DHT22;54190;49.770;9.250;2022-09-13T06:07:51;13.10;99.90
67273;DHT22;54190;49.770;9.250;2022-09-13T06:10:17;13.10;99.90
67273;DHT22;54190;49.770;9.250;2022-09-13T06:12:45;13.10;99.90
67273;DHT22;54190;49.770;9.250;2022-09-13T06:15:10;13.20;99.90
67273;DHT22;54190;49.770;9.250;2022-09-13T06:17:36;13.20;99.90
67273;DHT22;54190;49.770;9.250;2022-09-13T06:20:03;13.20;99.90
67273;DHT22;54190;49.770;9.250;2022-09-13T06:22:29;13.20;99.90
67273;DHT22;54190;49.770;9.250;2022-09-13T06:25:00;13.20;99.90
67273;DHT22;54190;49.770;9.250;2022-09-13T06:27:26;13.20;99.90
67273;DHT22;54190;49.770;9.250;2022-09-13T06:29:53;13.30;99.90
67273;DHT22;54190;49.770;9.250;2022-09-13T06:32:19;13.30;99.90
67273;DHT22;54190;49.770;9.250;2022-09-13T06:34:45;13.30;99.90
67273;DHT22;54190;49.770;9.250;2022-09-13T06:37:12;13.30;99.90
67273;DHT22;54190;49.770;9.250;2022-09-13T06:39:37;13.40;99.90
67273;DHT22;54190;49.770;9.250;2022-09-13T06:42:04;13.40;99.90
67273;DHT22;54190;49.770;9.250;2022-09-13T06:44:38;13.40;99.90
67273;DHT22;54190;49.770;9.250;2022-09-13T06:47:04;13.50;99.90
67273;DHT22;54190;49.770;9.250;2022-09-13T06:49:30;13.50;99.90
67273;DHT22;54190;49.770;9.250;2022-09-13T06:51:56;13.50;99.90
67273;DHT22;54190;49.770;9.250;2022-09-13T06:54:22;13.50;99.90
67273;DHT22;54190;49.770;9.250;2022-09-13T06:56:48;13.60;99.90
67273;DHT22;54190;49.770;9.250;2022-09-13T06:59:13;13.60;99.90
67273;DHT22;54190;49.770;9.250;2022-09-13T07:01:41;13.60;99.90
67273;DHT22;54190;49.770;9.250;2022-09-13T07:04:09;13.60;99.90
67273;DHT22;54190;49.770;9.250;2022-09-13T07:06:38;13.60;99.90
67273;DHT22;54190;49.770;9.250;2022-09-13T07:09:07;13.60;99.90
67273;DHT22;54190;49.770;9.250;2022-09-13T07:11:35;13.60;99.90
67273;DHT22;54190;49.770;9.250;2022-09-13T07:14:01;13.60;99.90
67273;DHT22;54190;49.770;9.250;2022-09-13T07:16:29;13.60;99.90
67273;DHT22;54190;49.770;9.250;2022-09-13T07:18:58;13.70;99.90
67273;DHT22;54190;49.770;9.250;2022-09-13T07:21:25;13.80;99.90
67273;DHT22;54190;49.770;9.250;2022-09-13T07:23:53;13.80;99.90
67273;DHT22;54190;49.770;9.250;2022-09-13T07:26:19;13.80;99.90
67273;DHT22;54190;49.770;9.250;2022-09-13T07:28:47;13.80;99.90
67273;DHT22;54190;49.770;9.250;2022-09-13T07:31:16;13.80;99.90
67273;DHT22;54190;49.770;9.250;2022-09-13T07:33:43;13.90;99.90
67273;DHT22;54190;49.770;9.250;2022-09-13T07:36:10;13.90;99.90
67273;DHT22;54190;49.770;9.250;2022-09-13T07:38:38;14.00;99.90
67273;DHT22;54190;49.770;9.250;2022-09-13T07:41:05;14.00;99.90
67273;DHT22;54190;49.770;9.250;2022-09-13T07:43:34;14.10;99.90
67273;DHT22;54190;49.770;9.250;2022-09-13T07:46:05;14.10;99.90
67273;DHT22;54190;49.770;9.250;2022-09-13T07:48:33;14.10;99.90
67273;DHT22;54190;49.770;9.250;2022-09-13T07:51:02;14.20;99.90
67273;DHT22;54190;49.770;9.250;2022-09-13T07:53:29;14.30;99.90
67273;DHT22;54190;49.770;9.250;2022-09-13T07:56:03;14.30;99.90
67273;DHT22;54190;49.770;9.250;2022-09-13T07:58:30;14.30;99.90
67273;DHT22;54190;49.770;9.250;2022-09-13T08:01:11;14.30;99.90
67273;DHT22;54190;49.770;9.250;2022-09-13T08:03:38;14.40;99.90
67273;DHT22;54190;49.770;9.250;2022-09-13T08:06:05;14.40;99.90
67273;DHT22;54190;49.770;9.250;2022-09-13T08:08:32;14.40;99.90
67273;DHT22;54190;49.770;9.250;2022-09-13T08:10:59;14.50;99.90
67273;DHT22;54190;49.770;9.250;2022-09-13T08:13:26;14.50;99.90
67273;DHT22;54190;49.770;9.250;2022-09-13T08:15:54;14.60;99.90
67273;DHT22;54190;49.770;9.250;2022-09-13T08:18:20;14.60;99.90
67273;DHT22;54190;49.770;9.250;2022-09-13T08:20:46;14.70;99.90
67273;DHT22;54190;49.770;9.250;2022-09-13T08:23:12;14.70;99.90
67273;DHT22;54190;49.770;9.250;2022-09-13T08:25:39;14.70;99.90
67273;DHT22;54190;49.770;9.250;2022-09-13T08:28:09;14.80;99.90
67273;DHT22;54190;49.770;9.250;2022-09-13T08:30:39;14.80;99.90
67273;DHT22;54190;49.770;9.250;2022-09-13T08:33:06;14.80;99.90
67273;DHT22;54190;49.770;9.250;2022-09-13T08:35:33;14.90;99.90
67273;DHT22;54190;49.770;9.250;2022-09-13T08:37:59;14.90;99.90
67273;DHT22;54190;49.770;9.250;2022-09-13T08:40:28;14.90;99.90
67273;DHT22;54190;49.770;9.250;2022-09-13T08:43:05;15.00;99.90
67273;DHT22;54190;49.770;9.250;2022-09-13T08:45:36;15.00;99.90
67273;DHT22;54190;49.770;9.250;2022-09-13T08:48:12;15.10;99.90
67273;DHT22;54190;49.770;9.250;2022-09-13T08:50:39;15.10;99.90
67273;DHT22;54190;49.770;9.250;2022-09-13T08:53:27;15.10;99.90
67273;DHT22;54190;49.770;9.250;2022-09-13T08:56:08;15.10;99.90
67273;DHT22;54190;49.770;9.250;2022-09-13T08:58:41;15.20;99.90
67273;DHT22;54190;49.770;9.250;2022-09-13T09:09:34;15.30;99.90
67273;DHT22;54190;49.770;9.250;2022-09-13T09:18:05;15.40;99.90
67273;DHT22;54190;49.770;9.250;2022-09-13T09:20:43;15.50;99.90
67273;DHT22;54190;49.770;9.250;2022-09-13T09:23:30;15.60;99.90
67273;DHT22;54190;49.770;9.250;2022-09-13T09:26:27;15.70;99.90
67273;DHT22;54190;49.770;9.250;2022-09-13T09:28:58;15.70;99.90
67273;DHT22;54190;49.770;9.250;2022-09-13T09:31:31;15.80;99.90
67273;DHT22;54190;49.770;9.250;2022-09-13T09:34:06;15.90;99.90
67273;DHT22;54190;49.770;9.250;2022-09-13T09:37:03;16.00;99.90
67273;DHT22;54190;49.770;9.250;2022-09-13T09:39:31;16.10;99.90
67273;DHT22;54190;49.770;9.250;2022-09-13T09:41:58;16.10;99.90
67273;DHT22;54190;49.770;9.250;2022-09-13T09:44:27;16.10;99.90
67273;DHT22;54190;49.770;9.250;2022-09-13T09:47:12;16.10;99.90
67273;DHT22;54190;49.770;9.250;2022-09-13T09:49:45;16.20;99.90
67273;DHT22;54190;49.770;9.250;2022-09-13T09:52:37;16.20;99.90
67273;DHT22;54190;49.770;9.250;2022-09-13T09:55:29;16.30;99.90
67273;DHT22;54190;49.770;9.250;2022-09-13T09:58:08;16.30;99.90
67273;DHT22;54190;49.770;9.250;2022-09-13T10:03:27;16.40;99.90
67273;DHT22;54190;49.770;9.250;2022-09-13T10:06:12;16.30;99.90
67273;DHT22;54190;49.770;9.250;2022-09-13T10:08:43;16.30;99.90
67273;DHT22;54190;49.770;9.250;2022-09-13T10:11:11;16.40;99.90
67273;DHT22;54190;49.770;9.250;2022-09-13T10:13:37;16.40;99.90
67273;DHT22;54190;49.770;9.250;2022-09-13T10:16:25;16.40;99.90
67273;DHT22;54190;49.770;9.250;2022-09-13T10:18:52;16.40;99.90
67273;DHT22;54190;49.770;9.250;2022-09-13T10:23:45;16.50;99.90
67273;DHT22;54190;49.770;9.250;2022-09-13T10:26:14;16.50;99.90
67273;DHT22;54190;49.770;9.250;2022-09-13T10:28:43;16.50;99.90
67273;DHT22;54190;49.770;9.250;2022-09-13T10:31:12;16.60;99.90
67273;DHT22;54190;49.770;9.250;2022-09-13T10:34:02;16.60;99.90
67273;DHT22;54190;49.770;9.250;2022-09-13T10:36:34;16.70;99.90
67273;DHT22;54190;49.770;9.250;2022-09-13T10:39:07;16.80;99.90
67273;DHT22;54190;49.770;9.250;2022-09-13T10:41:39;16.80;99.90
67273;DHT22;54190;49.770;9.250;2022-09-13T10:44:50;16.80;99.90
67273;DHT22;54190;49.770;9.250;2022-09-13T10:47:44;16.90;99.90
67273;DHT22;54190;49.770;9.250;2022-09-13T10:50:25;16.90;99.90
67273;DHT22;54190;49.770;9.250;2022-09-13T10:52:55;17.00;99.90
67273;DHT22;54190;49.770;9.250;2022-09-13T11:03:31;17.30;99.90
67273;DHT22;54190;49.770;9.250;2022-09-13T11:09:15;17.30;99.90
67273;DHT22;54190;49.770;9.250;2022-09-13T11:18:12;17.40;99.90
67273;DHT22;54190;49.770;9.250;2022-09-13T11:25:54;17.60;99.90
67273;DHT22;54190;49.770;9.250;2022-09-13T11:33:52;17.70;99.90
67273;DHT22;54190;49.770;9.250;2022-09-13T11:36:49;17.80;99.90
67273;DHT22;54190;49.770;9.250;2022-09-13T11:39:30;17.90;99.90
67273;DHT22;54190;49.770;9.250;2022-09-13T11:45:22;18.00;99.90
67273;DHT22;54190;49.770;9.250;2022-09-13T11:48:11;18.00;99.90
67273;DHT22;54190;49.770;9.250;2022-09-13T11:56:32;18.30;99.90
67273;DHT22;54190;49.770;9.250;2022-09-13T11:59:45;18.40;99.90
67273;DHT22;54190;49.770;9.250;2022-09-13T12:01:48;18.50;99.90
67273;DHT22;54190;49.770;9.250;2022-09-13T12:04:23;18.50;99.90
67273;DHT22;54190;49.770;9.250;2022-09-13T12:06:54;18.60;99.90
67273;DHT22;54190;49.770;9.250;2022-09-13T12:09:28;18.70;99.90
67273;DHT22;54190;49.770;9.250;2022-09-13T12:12:04;18.70;99.90
67273;DHT22;54190;49.770;9.250;2022-09-13T12:14:59;18.80;99.90
67273;DHT22;54190;49.770;9.250;2022-09-13T12:19:50;18.90;99.90
67273;DHT22;54190;49.770;9.250;2022-09-13T12:22:23;18.90;99.90
67273;DHT22;54190;49.770;9.250;2022-09-13T12:24:57;19.00;99.90
67273;DHT22;54190;49.770;9.250;2022-09-13T12:27:47;19.00;99.90
67273;DHT22;54190;49.770;9.250;2022-09-13T12:30:16;19.00;99.90
67273;DHT22;54190;49.770;9.250;2022-09-13T12:32:44;19.00;99.90
67273;DHT22;54190;49.770;9.250;2022-09-13T12:35:31;19.10;99.90
67273;DHT22;54190;49.770;9.250;2022-09-13T12:38:13;19.10;99.90
67273;DHT22;54190;49.770;9.250;2022-09-13T12:51:57;19.40;99.90
67273;DHT22;54190;49.770;9.250;2022-09-13T13:00:10;19.40;99.90
67273;DHT22;54190;49.770;9.250;2022-09-13T13:02:42;19.40;99.90
67273;DHT22;54190;49.770;9.250;2022-09-13T13:07:55;19.50;99.90
67273;DHT22;54190;49.770;9.250;2022-09-13T13:10:33;19.50;99.90
67273;DHT22;54190;49.770;9.250;2022-09-13T13:13:32;19.60;99.90
67273;DHT22;54190;49.770;9.250;2022-09-13T13:16:03;19.50;99.90
67273;DHT22;54190;49.770;9.250;2022-09-13T13:23:37;19.50;99.90
67273;DHT22;54190;49.770;9.250;2022-09-13T13:29:29;19.50;99.90
67273;DHT22;54190;49.770;9.250;2022-09-13T13:34:48;19.60;99.90
67273;DHT22;54190;49.770;9.250;2022-09-13T13:39:47;19.70;99.90
67273;DHT22;54190;49.770;9.250;2022-09-13T13:49:51;19.70;99.90
67273;DHT22;54190;49.770;9.250;2022-09-13T14:00:16;20.00;99.90
67273;DHT22;54190;49.770;9.250;2022-09-13T14:19:26;20.30;99.90
67273;DHT22;54190;49.770;9.250;2022-09-13T14:22:12;20.40;99.90
67273;DHT22;54190;49.770;9.250;2022-09-13T14:25:28;20.40;99.90
67273;DHT22;54190;49.770;9.250;2022-09-13T14:27:33;20.40;99.90
67273;DHT22;54190;49.770;9.250;2022-09-13T14:30:03;20.40;99.90
67273;DHT22;54190;49.770;9.250;2022-09-13T14:32:42;20.50;99.90
67273;DHT22;54190;49.770;9.250;2022-09-13T14:35:33;20.50;99.90
67273;DHT22;54190;49.770;9.250;2022-09-13T14:38:18;20.50;99.90
67273;DHT22;54190;49.770;9.250;2022-09-13T14:40:58;20.50;99.90
67273;DHT22;54190;49.770;9.250;2022-09-13T14:43:27;20.60;99.90
67273;DHT22;54190;49.770;9.250;2022-09-13T14:48:52;20.60;99.90
67273;DHT22;54190;49.770;9.250;2022-09-13T14:51:38;20.70;99.90
67273;DHT22;54190;49.770;9.250;2022-09-13T14:54:59;20.70;99.90
67273;DHT22;54190;49.770;9.250;2022-09-13T14:57:00;20.70;99.90
67273;DHT22;54190;49.770;9.250;2022-09-13T14:59:31;20.70;99.90
67273;DHT22;54190;49.770;9.250;2022-09-13T15:02:05;20.70;99.90
67273;DHT22;54190;49.770;9.250;2022-09-13T15:04:32;20.70;99.90
67273;DHT22;54190;49.770;9.250;2022-09-13T15:07:15;20.70;99.90
67273;DHT22;54190;49.770;9.250;2022-09-13T15:09:43;20.80;99.90
67273;DHT22;54190;49.770;9.250;2022-09-13T15:12:24;20.80;99.90
67273;DHT22;54190;49.770;9.250;2022-09-13T15:18:05;20.80;99.90
67273;DHT22;54190;49.770;9.250;2022-09-13T15:23:37;20.70;99.90
67273;DHT22;54190;49.770;9.250;2022-09-13T15:26:26;20.70;99.90
67273;DHT22;54190;49.770;9.250;2022-09-13T15:28:57;20.70;99.90
67273;DHT22;54190;49.770;9.250;2022-09-13T15:31:31;20.70;99.90
67273;DHT22;54190;49.770;9.250;2022-09-13T15:34:32;20.70;99.90
67273;DHT22;54190;49.770;9.250;2022-09-13T15:37:12;20.70;99.90
67273;DHT22;54190;49.770;9.250;2022-09-13T15:39:49;20.80;99.90
67273;DHT22;54190;49.770;9.250;2022-09-13T15:42:25;20.70;99.90
67273;DHT22;54190;49.770;9.250;2022-09-13T15:44:51;20.70;99.90
67273;DHT22;54190;49.770;9.250;2022-09-13T15:47:17;20.70;99.90
67273;DHT22;54190;49.770;9.250;2022-09-13T15:49:49;20.60;99.90
67273;DHT22;54190;49.770;9.250;2022-09-13T15:52:16;20.60;99.90
67273;DHT22;54190;49.770;9.250;2022-09-13T15:54:43;20.70;99.90
67273;DHT22;54190;49.770;9.250;2022-09-13T15:57:36;20.70;99.90
67273;DHT22;54190;49.770;9.250;2022-09-13T16:00:03;20.70;99.90
67273;DHT22;54190;49.770;9.250;2022-09-13T16:02:35;20.70;99.90
67273;DHT22;54190;49.770;9.250;2022-09-13T16:05:00;20.60;99.90
67273;DHT22;54190;49.770;9.250;2022-09-13T16:07:26;20.60;99.90
67273;DHT22;54190;49.770;9.250;2022-09-13T16:09:52;20.50;99.90
67273;DHT22;54190;49.770;9.250;2022-09-13T16:12:18;20.50;99.90
67273;DHT22;54190;49.770;9.250;2022-09-13T16:14:46;20.50;99.90
67273;DHT22;54190;49.770;9.250;2022-09-13T16:17:19;20.40;99.90
67273;DHT22;54190;49.770;9.250;2022-09-13T16:19:45;20.40;99.90
67273;DHT22;54190;49.770;9.250;2022-09-13T16:22:11;20.40;99.90
67273;DHT22;54190;49.770;9.250;2022-09-13T16:24:36;20.40;99.90
67273;DHT22;54190;49.770;9.250;2022-09-13T16:27:03;20.30;99.90
67273;DHT22;54190;49.770;9.250;2022-09-13T16:29:29;20.30;99.90
67273;DHT22;54190;49.770;9.250;2022-09-13T16:31:55;20.20;99.90
67273;DHT22;54190;49.770;9.250;2022-09-13T16:34:24;20.10;99.90
67273;DHT22;54190;49.770;9.250;2022-09-13T16:36:50;20.10;99.90
67273;DHT22;54190;49.770;9.250;2022-09-13T16:39:17;20.10;99.90
67273;DHT22;54190;49.770;9.250;2022-09-13T16:41:42;20.00;99.90
67273;DHT22;54190;49.770;9.250;2022-09-13T16:44:08;20.00;99.90
67273;DHT22;54190;49.770;9.250;2022-09-13T16:46:34;20.00;99.90
67273;DHT22;54190;49.770;9.250;2022-09-13T16:48:59;19.90;99.90
67273;DHT22;54190;49.770;9.250;2022-09-13T16:51:25;19.90;99.90
67273;DHT22;54190;49.770;9.250;2022-09-13T16:53:52;19.90;99.90
67273;DHT22;54190;49.770;9.250;2022-09-13T16:56:21;19.80;99.90
67273;DHT22;54190;49.770;9.250;2022-09-13T16:58:48;19.80;99.90
67273;DHT22;54190;49.770;9.250;2022-09-13T17:01:17;19.80;99.90
67273;DHT22;54190;49.770;9.250;2022-09-13T17:03:43;19.80;99.90
67273;DHT22;54190;49.770;9.250;2022-09-13T17:06:11;19.80;99.90
67273;DHT22;54190;49.770;9.250;2022-09-13T17:08:39;19.80;99.90
67273;DHT22;54190;49.770;9.250;2022-09-13T17:11:10;19.70;99.90
67273;DHT22;54190;49.770;9.250;2022-09-13T17:13:37;19.70;99.90
67273;DHT22;54190;49.770;9.250;2022-09-13T17:16:05;19.70;99.90
67273;DHT22;54190;49.770;9.250;2022-09-13T17:18:32;19.70;99.90
67273;DHT22;54190;49.770;9.250;2022-09-13T17:20:58;19.70;99.90
67273;DHT22;54190;49.770;9.250;2022-09-13T17:23:25;19.60;99.90
67273;DHT22;54190;49.770;9.250;2022-09-13T17:25:51;19.60;99.90
67273;DHT22;54190;49.770;9.250;2022-09-13T17:28:18;19.60;99.90
67273;DHT22;54190;49.770;9.250;2022-09-13T17:30:45;19.60;99.90
67273;DHT22;54190;49.770;9.250;2022-09-13T17:33:11;19.50;99.90
67273;DHT22;54190;49.770;9.250;2022-09-13T17:35:37;19.50;99.90
67273;DHT22;54190;49.770;9.250;2022-09-13T17:38:04;19.50;99.90
67273;DHT22;54190;49.770;9.250;2022-09-13T17:40:30;19.50;99.90
67273;DHT22;54190;49.770;9.250;2022-09-13T17:42:56;19.40;99.90
67273;DHT22;54190;49.770;9.250;2022-09-13T17:45:22;19.40;99.90
67273;DHT22;54190;49.770;9.250;2022-09-13T17:47:51;19.40;99.90
67273;DHT22;54190;49.770;9.250;2022-09-13T17:50:17;19.40;99.90
67273;DHT22;54190;49.770;9.250;2022-09-13T17:52:43;19.40;99.90
67273;DHT22;54190;49.770;9.250;2022-09-13T17:55:09;19.30;99.90
67273;DHT22;54190;49.770;9.250;2022-09-13T17:57:35;19.30;99.90
67273;DHT22;54190;49.770;9.250;2022-09-13T18:00:02;19.20;99.90
67273;DHT22;54190;49.770;9.250;2022-09-13T18:02:30;19.20;99.90
67273;DHT22;54190;49.770;9.250;2022-09-13T18:04:55;19.10;99.90
67273;DHT22;54190;49.770;9.250;2022-09-13T18:07:21;19.10;99.90
67273;DHT22;54190;49.770;9.250;2022-09-13T18:09:46;19.10;99.90
67273;DHT22;54190;49.770;9.250;2022-09-13T18:12:12;19.00;99.90
67273;DHT22;54190;49.770;9.250;2022-09-13T18:14:38;19.10;99.90
67273;DHT22;54190;49.770;9.250;2022-09-13T18:17:05;19.00;99.90
67273;DHT22;54190;49.770;9.250;2022-09-13T18:19:38;19.00;99.90
67273;DHT22;54190;49.770;9.250;2022-09-13T18:22:04;18.90;99.90
67273;DHT22;54190;49.770;9.250;2022-09-13T18:24:30;18.90;99.90
67273;DHT22;54190;49.770;9.250;2022-09-13T18:26:58;18.90;99.90
67273;DHT22;54190;49.770;9.250;2022-09-13T18:29:24;18.80;99.90
67273;DHT22;54190;49.770;9.250;2022-09-13T18:31:51;18.80;99.90
67273;DHT22;54190;49.770;9.250;2022-09-13T18:34:16;18.70;99.90
67273;DHT22;54190;49.770;9.250;2022-09-13T18:36:42;18.70;99.90
67273;DHT22;54190;49.770;9.250;2022-09-13T18:39:14;18.70;99.90
67273;DHT22;54190;49.770;9.250;2022-09-13T18:41:41;18.70;99.90
67273;DHT22;54190;49.770;9.250;2022-09-13T18:44:08;18.70;99.90
67273;DHT22;54190;49.770;9.250;2022-09-13T18:46:35;18.70;99.90
67273;DHT22;54190;49.770;9.250;2022-09-13T18:49:03;18.70;99.90
67273;DHT22;54190;49.770;9.250;2022-09-13T18:51:32;18.70;99.90
67273;DHT22;54190;49.770;9.250;2022-09-13T18:53:59;18.60;99.90
67273;DHT22;54190;49.770;9.250;2022-09-13T18:56:26;18.60;99.90
67273;DHT22;54190;49.770;9.250;2022-09-13T18:58:52;18.50;99.90
67273;DHT22;54190;49.770;9.250;2022-09-13T19:01:21;18.50;99.90
67273;DHT22;54190;49.770;9.250;2022-09-13T19:03:49;18.50;99.90